Aérodrome :
LOGIN :

S'inscrire | Disclaimer

   EN    FR    IT 

 










Légende :    VFR   VFR Marginal   IFR   IFR Intensif   IFR Très Intensif
Visi : 
Plafond : 
>= 8 km
>= 3000ft
5 à 8 km
1000 à 3000 ft
1500m à 5 km
500 à 1000 ft
800 à 1500m
200 à 500 ft
< 800m
< 200 ft
Symboles :   Orages  Brouillard  Fortes neiges  Fortes précipitations  Vent > 20 kt
SIGMETs :   Divers  Orages  Givrage  Turbulence  Onde Orograph.  Cendres Volcan.







- Altitude de l'aérodrome : 1084 ft
- Code IATA : EPL
- Voir les cartes d'approche


LFSG - Épinal-Mirecourt

DERNIER METAR :
  • 191830Z AUTO 26005KT //// R26///// // NSC 10/08 Q1021

METARs EXPIRÉS :
  • 191800Z AUTO 29007KT //// R26///// // NSC 11/08 Q1021
  • 191730Z AUTO 28009KT //// R26///// // FEW026 OVC066 12/08 Q1021
  • 191700Z AUTO 30007KT //// R26///// // NSC 13/08 Q1020
  • 191630Z AUTO 29007KT //// R26///// // NSC 13/08 Q1020
  • 191600Z AUTO 29009KT //// R26///// // FEW032 BKN060 13/08 Q1020

TAF N/A
Pas de NOTAMs connus pour ce terrain.
1 SIGMET publié pour la FIR Reims (LFEE) :
 
Turbulence forte
LFEE SIGMET 2 VALID 191600/191800 LFPW
LFEE REIMS FIR/UIR SEV TURB FCST WI N4630 E00545 - N4630 E00500 - N4830 E00545 - N4815 E00645 FL200/300 MOV E 20KT WKN=



MET'MAP, la Météo Aéronautique d'un coup d'oeil ! - Copyright ORBIFLY Décembre 2007 - Disclaimer

ORBIFLY MET'MAP TEAM :

Programmation & Développement : Alexandra Zaïnal
Conception & Développement : Baudouin d'Aumeries
Co-Programmation & Développement : Marc-Olivier Méhu
Soutien technique & logistique : Manuel Goepfert

Contact : metmap@orbifly.com




SOURCES & CREDITS :

   NOAA